sensor_id;sensor_type;location;lat;lon;timestamp;pressure;altitude;pressure_sealevel;temperature;humidity
34566;BME280;20803;42.676;26.348;2024-01-15T00:00:00;98259.25;;;2.72;49.25
34566;BME280;20803;42.676;26.348;2024-01-15T00:02:25;98257.22;;;2.95;48.89
34566;BME280;20803;42.676;26.348;2024-01-15T00:04:51;98268.00;;;3.11;48.55
34566;BME280;20803;42.676;26.348;2024-01-15T00:07:16;98257.09;;;3.18;48.52
34566;BME280;20803;42.676;26.348;2024-01-15T00:09:42;98254.78;;;3.23;47.95
34566;BME280;20803;42.676;26.348;2024-01-15T00:12:07;98260.88;;;3.40;47.55
34566;BME280;20803;42.676;26.348;2024-01-15T00:14:33;98262.91;;;3.46;47.12
34566;BME280;20803;42.676;26.348;2024-01-15T00:16:58;98253.91;;;3.49;46.97
34566;BME280;20803;42.676;26.348;2024-01-15T00:19:24;98248.81;;;3.51;47.13
34566;BME280;20803;42.676;26.348;2024-01-15T00:21:50;98248.13;;;3.58;47.39
34566;BME280;20803;42.676;26.348;2024-01-15T00:24:15;98250.88;;;3.61;47.41
34566;BME280;20803;42.676;26.348;2024-01-15T00:26:41;98262.22;;;3.56;47.08
34566;BME280;20803;42.676;26.348;2024-01-15T00:29:07;98262.63;;;3.58;47.46
34566;BME280;20803;42.676;26.348;2024-01-15T00:31:33;98266.63;;;3.64;47.85
34566;BME280;20803;42.676;26.348;2024-01-15T00:33:58;98255.22;;;3.62;47.89
34566;BME280;20803;42.676;26.348;2024-01-15T00:36:24;98256.72;;;3.56;47.21
34566;BME280;20803;42.676;26.348;2024-01-15T00:38:49;98255.94;;;3.56;47.67
34566;BME280;20803;42.676;26.348;2024-01-15T00:41:15;98257.53;;;3.60;47.87
34566;BME280;20803;42.676;26.348;2024-01-15T00:43:41;98257.06;;;3.51;47.81
34566;BME280;20803;42.676;26.348;2024-01-15T00:46:06;98252.75;;;3.50;47.95
34566;BME280;20803;42.676;26.348;2024-01-15T00:48:32;98255.78;;;3.42;47.99
34566;BME280;20803;42.676;26.348;2024-01-15T00:50:57;98253.72;;;3.32;48.10
34566;BME280;20803;42.676;26.348;2024-01-15T00:53:23;98247.03;;;3.29;48.34
34566;BME280;20803;42.676;26.348;2024-01-15T00:55:49;98248.97;;;2.95;49.14
34566;BME280;20803;42.676;26.348;2024-01-15T00:58:14;98241.25;;;3.04;48.72
34566;BME280;20803;42.676;26.348;2024-01-15T01:00:40;98242.81;;;3.05;48.37
34566;BME280;20803;42.676;26.348;2024-01-15T01:03:06;98244.31;;;2.99;48.91
34566;BME280;20803;42.676;26.348;2024-01-15T01:05:32;98236.97;;;3.07;48.73
34566;BME280;20803;42.676;26.348;2024-01-15T01:07:58;98242.56;;;3.17;47.92
34566;BME280;20803;42.676;26.348;2024-01-15T01:10:23;98241.41;;;3.18;48.50
34566;BME280;20803;42.676;26.348;2024-01-15T01:12:49;98243.34;;;3.14;48.62
34566;BME280;20803;42.676;26.348;2024-01-15T01:15:14;98240.31;;;3.23;48.73
34566;BME280;20803;42.676;26.348;2024-01-15T01:17:40;98245.44;;;3.28;48.51
34566;BME280;20803;42.676;26.348;2024-01-15T01:20:06;98249.47;;;3.38;48.62
34566;BME280;20803;42.676;26.348;2024-01-15T01:22:33;98244.84;;;3.45;48.42
34566;BME280;20803;42.676;26.348;2024-01-15T01:24:59;98251.41;;;3.37;48.39
34566;BME280;20803;42.676;26.348;2024-01-15T01:27:24;98242.56;;;3.17;48.68
34566;BME280;20803;42.676;26.348;2024-01-15T01:29:50;98243.53;;;2.99;49.31
34566;BME280;20803;42.676;26.348;2024-01-15T01:32:15;98250.91;;;2.91;48.91
34566;BME280;20803;42.676;26.348;2024-01-15T01:34:41;98254.34;;;2.84;49.44
34566;BME280;20803;42.676;26.348;2024-01-15T01:37:10;98253.78;;;3.05;48.67
34566;BME280;20803;42.676;26.348;2024-01-15T01:39:39;98253.88;;;3.12;48.79
34566;BME280;20803;42.676;26.348;2024-01-15T01:42:05;98243.16;;;3.00;48.72
34566;BME280;20803;42.676;26.348;2024-01-15T01:44:30;98245.25;;;3.10;48.30
34566;BME280;20803;42.676;26.348;2024-01-15T01:46:57;98238.09;;;3.02;48.57
34566;BME280;20803;42.676;26.348;2024-01-15T01:49:24;98245.19;;;3.07;48.05
34566;BME280;20803;42.676;26.348;2024-01-15T01:51:50;98244.66;;;2.94;48.35
34566;BME280;20803;42.676;26.348;2024-01-15T01:54:17;98240.97;;;2.83;48.38
34566;BME280;20803;42.676;26.348;2024-01-15T01:56:43;98254.00;;;2.90;48.37
34566;BME280;20803;42.676;26.348;2024-01-15T01:59:10;98248.16;;;2.91;48.74
34566;BME280;20803;42.676;26.348;2024-01-15T02:01:36;98248.75;;;2.77;48.73
34566;BME280;20803;42.676;26.348;2024-01-15T02:04:03;98242.94;;;2.82;48.58
34566;BME280;20803;42.676;26.348;2024-01-15T02:06:29;98236.78;;;2.63;49.02
34566;BME280;20803;42.676;26.348;2024-01-15T02:08:55;98227.63;;;2.52;50.06
34566;BME280;20803;42.676;26.348;2024-01-15T02:11:21;98236.72;;;2.56;49.53
34566;BME280;20803;42.676;26.348;2024-01-15T02:13:47;98227.41;;;2.64;50.28
34566;BME280;20803;42.676;26.348;2024-01-15T02:16:13;98222.59;;;2.54;49.73
34566;BME280;20803;42.676;26.348;2024-01-15T02:18:42;98229.59;;;2.51;50.07
34566;BME280;20803;42.676;26.348;2024-01-15T02:21:08;98225.06;;;2.62;49.97
34566;BME280;20803;42.676;26.348;2024-01-15T02:23:34;98223.50;;;2.35;50.43
34566;BME280;20803;42.676;26.348;2024-01-15T02:25:59;98216.53;;;2.41;50.27
34566;BME280;20803;42.676;26.348;2024-01-15T02:28:25;98221.88;;;2.30;50.50
34566;BME280;20803;42.676;26.348;2024-01-15T02:30:50;98227.16;;;2.20;51.12
34566;BME280;20803;42.676;26.348;2024-01-15T02:33:16;98222.22;;;2.29;50.63
34566;BME280;20803;42.676;26.348;2024-01-15T02:35:41;98220.53;;;2.47;50.57
34566;BME280;20803;42.676;26.348;2024-01-15T02:38:07;98214.28;;;2.50;50.98
34566;BME280;20803;42.676;26.348;2024-01-15T02:40:35;98207.69;;;2.25;50.98
34566;BME280;20803;42.676;26.348;2024-01-15T02:43:00;98208.56;;;2.32;50.94
34566;BME280;20803;42.676;26.348;2024-01-15T02:45:26;98214.22;;;2.17;51.06
34566;BME280;20803;42.676;26.348;2024-01-15T02:47:52;98201.03;;;2.26;51.20
34566;BME280;20803;42.676;26.348;2024-01-15T02:50:18;98196.50;;;2.37;50.86
34566;BME280;20803;42.676;26.348;2024-01-15T02:52:43;98187.88;;;2.38;50.58
34566;BME280;20803;42.676;26.348;2024-01-15T02:55:09;98185.94;;;2.39;50.81
34566;BME280;20803;42.676;26.348;2024-01-15T02:57:35;98180.75;;;2.30;50.71
34566;BME280;20803;42.676;26.348;2024-01-15T03:00:00;98169.88;;;2.37;50.99
34566;BME280;20803;42.676;26.348;2024-01-15T03:02:26;98176.47;;;2.33;50.88
34566;BME280;20803;42.676;26.348;2024-01-15T03:04:52;98172.06;;;2.25;51.03
34566;BME280;20803;42.676;26.348;2024-01-15T03:07:17;98175.38;;;2.11;51.77
34566;BME280;20803;42.676;26.348;2024-01-15T03:09:43;98169.06;;;2.07;52.03
34566;BME280;20803;42.676;26.348;2024-01-15T03:12:09;98182.59;;;1.96;51.96
34566;BME280;20803;42.676;26.348;2024-01-15T03:14:35;98170.13;;;1.99;52.40
34566;BME280;20803;42.676;26.348;2024-01-15T03:17:01;98183.81;;;1.99;52.08
34566;BME280;20803;42.676;26.348;2024-01-15T03:19:27;98173.69;;;2.03;51.83
34566;BME280;20803;42.676;26.348;2024-01-15T03:21:52;98179.50;;;1.98;51.47
34566;BME280;20803;42.676;26.348;2024-01-15T03:24:18;98169.69;;;1.97;51.42
34566;BME280;20803;42.676;26.348;2024-01-15T03:26:43;98168.50;;;1.94;51.37
34566;BME280;20803;42.676;26.348;2024-01-15T03:29:09;98161.53;;;2.00;51.17
34566;BME280;20803;42.676;26.348;2024-01-15T03:31:34;98165.44;;;1.99;51.21
34566;BME280;20803;42.676;26.348;2024-01-15T03:34:00;98154.97;;;2.09;50.91
34566;BME280;20803;42.676;26.348;2024-01-15T03:36:25;98155.75;;;2.06;51.05
34566;BME280;20803;42.676;26.348;2024-01-15T03:38:51;98161.22;;;2.06;51.44
34566;BME280;20803;42.676;26.348;2024-01-15T03:41:16;98161.00;;;2.18;51.09
34566;BME280;20803;42.676;26.348;2024-01-15T03:43:42;98160.44;;;2.35;50.94
34566;BME280;20803;42.676;26.348;2024-01-15T03:46:07;98157.91;;;2.49;50.92
34566;BME280;20803;42.676;26.348;2024-01-15T03:48:33;98153.22;;;2.50;50.24
34566;BME280;20803;42.676;26.348;2024-01-15T03:50:58;98154.38;;;2.49;50.96
34566;BME280;20803;42.676;26.348;2024-01-15T03:53:24;98152.69;;;2.40;50.66
34566;BME280;20803;42.676;26.348;2024-01-15T03:55:50;98146.38;;;2.36;50.77
34566;BME280;20803;42.676;26.348;2024-01-15T03:58:15;98153.22;;;2.50;50.61
34566;BME280;20803;42.676;26.348;2024-01-15T04:00:42;98147.72;;;2.50;50.34
34566;BME280;20803;42.676;26.348;2024-01-15T04:03:08;98154.28;;;2.45;50.41
34566;BME280;20803;42.676;26.348;2024-01-15T04:05:33;98161.81;;;2.22;50.87
34566;BME280;20803;42.676;26.348;2024-01-15T04:07:59;98166.41;;;2.14;50.74
34566;BME280;20803;42.676;26.348;2024-01-15T04:10:24;98168.31;;;2.10;51.10
34566;BME280;20803;42.676;26.348;2024-01-15T04:12:50;98182.59;;;1.96;51.23
34566;BME280;20803;42.676;26.348;2024-01-15T04:15:15;98185.50;;;1.81;51.92
34566;BME280;20803;42.676;26.348;2024-01-15T04:17:41;98176.28;;;1.92;51.78
34566;BME280;20803;42.676;26.348;2024-01-15T04:20:07;98175.16;;;1.97;51.41
34566;BME280;20803;42.676;26.348;2024-01-15T04:22:34;98179.38;;;1.91;51.90
34566;BME280;20803;42.676;26.348;2024-01-15T04:25:00;98168.50;;;1.94;51.73
34566;BME280;20803;42.676;26.348;2024-01-15T04:27:25;98174.66;;;1.88;51.97
34566;BME280;20803;42.676;26.348;2024-01-15T04:29:51;98168.31;;;1.84;51.75
34566;BME280;20803;42.676;26.348;2024-01-15T04:32:16;98173.00;;;1.83;53.16
34566;BME280;20803;42.676;26.348;2024-01-15T04:34:42;98171.16;;;1.91;52.99
34566;BME280;20803;42.676;26.348;2024-01-15T04:37:07;98162.13;;;1.87;52.39
34566;BME280;20803;42.676;26.348;2024-01-15T04:39:33;98162.47;;;1.85;52.49
34566;BME280;20803;42.676;26.348;2024-01-15T04:41:58;98161.00;;;1.91;52.19
34566;BME280;20803;42.676;26.348;2024-01-15T04:44:24;98160.00;;;2.03;52.64
34566;BME280;20803;42.676;26.348;2024-01-15T04:46:50;98160.25;;;2.21;51.57
34566;BME280;20803;42.676;26.348;2024-01-15T04:49:15;98154.06;;;2.27;51.09
34566;BME280;20803;42.676;26.348;2024-01-15T04:51:41;98155.66;;;2.28;51.08
34566;BME280;20803;42.676;26.348;2024-01-15T04:54:06;98152.72;;;2.14;50.72
34566;BME280;20803;42.676;26.348;2024-01-15T04:56:32;98153.91;;;2.13;51.21
34566;BME280;20803;42.676;26.348;2024-01-15T04:58:57;98164.09;;;2.16;51.66
34566;BME280;20803;42.676;26.348;2024-01-15T05:01:23;98166.72;;;2.35;51.15
34566;BME280;20803;42.676;26.348;2024-01-15T05:03:48;98164.78;;;2.36;51.17
34566;BME280;20803;42.676;26.348;2024-01-15T05:06:14;98167.81;;;2.01;51.51
34566;BME280;20803;42.676;26.348;2024-01-15T05:08:40;98158.59;;;2.13;51.82
34566;BME280;20803;42.676;26.348;2024-01-15T05:11:06;98167.53;;;1.83;51.92
34566;BME280;20803;42.676;26.348;2024-01-15T05:13:31;98154.38;;;1.92;51.67
34566;BME280;20803;42.676;26.348;2024-01-15T05:15:57;98154.69;;;1.87;52.29
34566;BME280;20803;42.676;26.348;2024-01-15T05:18:22;98155.19;;;1.96;52.08
34566;BME280;20803;42.676;26.348;2024-01-15T05:20:48;98161.56;;;2.04;52.24
34566;BME280;20803;42.676;26.348;2024-01-15T05:23:14;98163.28;;;2.12;52.31
34566;BME280;20803;42.676;26.348;2024-01-15T05:25:39;98166.38;;;2.11;52.11
34566;BME280;20803;42.676;26.348;2024-01-15T05:28:05;98162.63;;;2.22;51.91
34566;BME280;20803;42.676;26.348;2024-01-15T05:30:31;98159.09;;;2.22;51.98
34566;BME280;20803;42.676;26.348;2024-01-15T05:32:56;98160.25;;;2.21;51.79
34566;BME280;20803;42.676;26.348;2024-01-15T05:35:23;98159.41;;;2.17;51.75
34566;BME280;20803;42.676;26.348;2024-01-15T05:37:48;98150.75;;;2.15;51.93
34566;BME280;20803;42.676;26.348;2024-01-15T05:40:14;98151.56;;;2.15;52.60
34566;BME280;20803;42.676;26.348;2024-01-15T05:42:40;98157.91;;;2.19;52.54
34566;BME280;20803;42.676;26.348;2024-01-15T05:45:06;98153.81;;;2.36;51.75
34566;BME280;20803;42.676;26.348;2024-01-15T05:47:32;98147.56;;;2.39;51.90
34566;BME280;20803;42.676;26.348;2024-01-15T05:49:58;98146.06;;;2.45;51.94
34566;BME280;20803;42.676;26.348;2024-01-15T05:52:23;98144.19;;;2.49;52.17
34566;BME280;20803;42.676;26.348;2024-01-15T05:54:49;98144.97;;;2.50;52.13
34566;BME280;20803;42.676;26.348;2024-01-15T05:57:15;98144.72;;;2.62;51.38
34566;BME280;20803;42.676;26.348;2024-01-15T05:59:41;98141.34;;;2.75;51.76
34566;BME280;20803;42.676;26.348;2024-01-15T06:02:06;98145.75;;;2.83;50.94
34566;BME280;20803;42.676;26.348;2024-01-15T06:04:32;98141.16;;;2.91;50.97
34566;BME280;20803;42.676;26.348;2024-01-15T06:06:57;98149.13;;;3.03;50.94
34566;BME280;20803;42.676;26.348;2024-01-15T06:09:23;98148.06;;;3.15;50.39
34566;BME280;20803;42.676;26.348;2024-01-15T06:11:48;98151.34;;;3.31;50.02
34566;BME280;20803;42.676;26.348;2024-01-15T06:14:14;98139.97;;;3.33;49.44
34566;BME280;20803;42.676;26.348;2024-01-15T06:16:39;98148.56;;;3.28;49.15
34566;BME280;20803;42.676;26.348;2024-01-15T06:19:05;98143.44;;;3.22;49.31
34566;BME280;20803;42.676;26.348;2024-01-15T06:21:30;98147.63;;;3.13;49.25
34566;BME280;20803;42.676;26.348;2024-01-15T06:23:56;98150.81;;;3.18;49.40
34566;BME280;20803;42.676;26.348;2024-01-15T06:26:24;98154.06;;;3.28;49.25
34566;BME280;20803;42.676;26.348;2024-01-15T06:28:50;98146.50;;;3.17;49.41
34566;BME280;20803;42.676;26.348;2024-01-15T06:31:16;98148.41;;;3.10;49.33
34566;BME280;20803;42.676;26.348;2024-01-15T06:33:41;98154.91;;;3.35;49.03
34566;BME280;20803;42.676;26.348;2024-01-15T06:36:07;98142.13;;;3.09;49.08
34566;BME280;20803;42.676;26.348;2024-01-15T06:38:33;98143.34;;;3.15;49.36
34566;BME280;20803;42.676;26.348;2024-01-15T06:40:58;98123.00;;;3.20;49.08
34566;BME280;20803;42.676;26.348;2024-01-15T06:43:23;98121.50;;;3.30;48.81
34566;BME280;20803;42.676;26.348;2024-01-15T06:45:49;98121.63;;;3.40;49.16
34566;BME280;20803;42.676;26.348;2024-01-15T06:48:15;98115.91;;;3.63;48.96
34566;BME280;20803;42.676;26.348;2024-01-15T06:50:42;98109.38;;;3.85;48.28
34566;BME280;20803;42.676;26.348;2024-01-15T06:53:08;98117.38;;;4.04;47.99
34566;BME280;20803;42.676;26.348;2024-01-15T06:55:34;98121.38;;;4.18;47.91
34566;BME280;20803;42.676;26.348;2024-01-15T06:57:59;98128.47;;;4.19;46.99
34566;BME280;20803;42.676;26.348;2024-01-15T07:00:25;98143.41;;;4.28;47.59
34566;BME280;20803;42.676;26.348;2024-01-15T07:02:53;98136.38;;;4.34;46.40
34566;BME280;20803;42.676;26.348;2024-01-15T07:05:20;98140.75;;;4.39;46.73
34566;BME280;20803;42.676;26.348;2024-01-15T07:07:45;98144.22;;;4.29;46.48
34566;BME280;20803;42.676;26.348;2024-01-15T07:10:11;98152.84;;;4.24;47.09
34566;BME280;20803;42.676;26.348;2024-01-15T07:12:36;98169.34;;;4.24;47.66
34566;BME280;20803;42.676;26.348;2024-01-15T07:15:02;98155.25;;;4.36;47.36
34566;BME280;20803;42.676;26.348;2024-01-15T07:17:29;98155.34;;;4.54;46.98
34566;BME280;20803;42.676;26.348;2024-01-15T07:19:56;98162.91;;;4.74;46.98
34566;BME280;20803;42.676;26.348;2024-01-15T07:22:21;98156.28;;;4.89;46.85
34566;BME280;20803;42.676;26.348;2024-01-15T07:24:47;98166.94;;;5.05;46.49
34566;BME280;20803;42.676;26.348;2024-01-15T07:27:12;98163.03;;;5.13;46.34
34566;BME280;20803;42.676;26.348;2024-01-15T07:29:38;98149.66;;;5.19;45.45
34566;BME280;20803;42.676;26.348;2024-01-15T07:32:04;98150.09;;;5.35;45.39
34566;BME280;20803;42.676;26.348;2024-01-15T07:34:30;98155.97;;;5.16;45.26
34566;BME280;20803;42.676;26.348;2024-01-15T07:36:57;98157.50;;;5.06;45.83
34566;BME280;20803;42.676;26.348;2024-01-15T07:39:23;98154.34;;;5.01;45.64
34566;BME280;20803;42.676;26.348;2024-01-15T07:41:50;98142.59;;;5.21;45.85
34566;BME280;20803;42.676;26.348;2024-01-15T07:44:16;98132.81;;;5.49;45.53
34566;BME280;20803;42.676;26.348;2024-01-15T07:46:45;98139.06;;;5.81;44.59
34566;BME280;20803;42.676;26.348;2024-01-15T07:49:11;98145.00;;;6.08;44.44
34566;BME280;20803;42.676;26.348;2024-01-15T07:51:37;98144.97;;;6.26;43.57
34566;BME280;20803;42.676;26.348;2024-01-15T07:54:03;98132.31;;;6.42;43.56
34566;BME280;20803;42.676;26.348;2024-01-15T07:56:28;98133.47;;;6.52;42.92
34566;BME280;20803;42.676;26.348;2024-01-15T07:58:54;98131.06;;;6.61;42.74
34566;BME280;20803;42.676;26.348;2024-01-15T08:01:19;98139.69;;;6.74;42.90
34566;BME280;20803;42.676;26.348;2024-01-15T08:03:45;98136.13;;;6.77;42.36
34566;BME280;20803;42.676;26.348;2024-01-15T08:06:10;98130.69;;;6.56;42.70
34566;BME280;20803;42.676;26.348;2024-01-15T08:08:37;98139.00;;;6.52;42.59
34566;BME280;20803;42.676;26.348;2024-01-15T08:11:03;98133.84;;;6.58;42.73
34566;BME280;20803;42.676;26.348;2024-01-15T08:13:28;98137.69;;;6.78;42.86
34566;BME280;20803;42.676;26.348;2024-01-15T08:15:54;98144.34;;;6.91;43.67
34566;BME280;20803;42.676;26.348;2024-01-15T08:18:19;98141.53;;;6.98;45.64
34566;BME280;20803;42.676;26.348;2024-01-15T08:20:47;98139.91;;;7.08;46.41
34566;BME280;20803;42.676;26.348;2024-01-15T08:23:13;98131.56;;;7.15;46.61
34566;BME280;20803;42.676;26.348;2024-01-15T08:25:39;98130.75;;;7.21;46.44
34566;BME280;20803;42.676;26.348;2024-01-15T08:28:04;98133.13;;;7.23;47.04
34566;BME280;20803;42.676;26.348;2024-01-15T08:30:30;98129.13;;;7.27;46.89
34566;BME280;20803;42.676;26.348;2024-01-15T08:32:56;98129.84;;;7.39;46.72
34566;BME280;20803;42.676;26.348;2024-01-15T08:35:22;98136.50;;;7.45;47.44
34566;BME280;20803;42.676;26.348;2024-01-15T08:37:49;98133.00;;;7.41;47.30
34566;BME280;20803;42.676;26.348;2024-01-15T08:40:16;98131.22;;;7.13;48.27
34566;BME280;20803;42.676;26.348;2024-01-15T08:42:42;98128.84;;;7.08;48.40
34566;BME280;20803;42.676;26.348;2024-01-15T08:45:08;98128.50;;;7.06;47.87
34566;BME280;20803;42.676;26.348;2024-01-15T08:47:34;98117.75;;;7.15;47.25
34566;BME280;20803;42.676;26.348;2024-01-15T08:50:00;98115.31;;;7.31;46.53
34566;BME280;20803;42.676;26.348;2024-01-15T08:52:26;98100.97;;;7.47;46.25
34566;BME280;20803;42.676;26.348;2024-01-15T08:54:52;98092.97;;;7.59;46.02
34566;BME280;20803;42.676;26.348;2024-01-15T08:57:17;98089.25;;;7.80;45.56
34566;BME280;20803;42.676;26.348;2024-01-15T08:59:43;98079.66;;;7.92;44.87
34566;BME280;20803;42.676;26.348;2024-01-15T09:02:08;98086.59;;;8.07;45.13
34566;BME280;20803;42.676;26.348;2024-01-15T09:04:34;98085.34;;;8.15;44.21
34566;BME280;20803;42.676;26.348;2024-01-15T09:06:59;98076.69;;;8.09;44.25
34566;BME280;20803;42.676;26.348;2024-01-15T09:09:25;98084.75;;;7.93;44.04
34566;BME280;20803;42.676;26.348;2024-01-15T09:11:51;98080.28;;;7.65;44.27
34566;BME280;20803;42.676;26.348;2024-01-15T09:14:17;98083.78;;;7.73;44.59
34566;BME280;20803;42.676;26.348;2024-01-15T09:16:43;98074.25;;;7.78;44.87
34566;BME280;20803;42.676;26.348;2024-01-15T09:19:08;98072.03;;;7.99;45.16
34566;BME280;20803;42.676;26.348;2024-01-15T09:21:34;98065.31;;;8.00;43.98
34566;BME280;20803;42.676;26.348;2024-01-15T09:23:59;98065.97;;;8.15;43.94
34566;BME280;20803;42.676;26.348;2024-01-15T09:26:25;98064.47;;;8.07;44.31
34566;BME280;20803;42.676;26.348;2024-01-15T09:28:51;98044.97;;;8.18;44.01
34566;BME280;20803;42.676;26.348;2024-01-15T09:31:17;98052.88;;;8.19;44.01
34566;BME280;20803;42.676;26.348;2024-01-15T09:33:43;98045.66;;;8.29;43.96
34566;BME280;20803;42.676;26.348;2024-01-15T09:36:09;98038.72;;;8.47;43.44
34566;BME280;20803;42.676;26.348;2024-01-15T09:38:34;98035.28;;;8.67;43.59
34566;BME280;20803;42.676;26.348;2024-01-15T09:41:00;98026.69;;;8.88;42.86
34566;BME280;20803;42.676;26.348;2024-01-15T09:43:26;98014.72;;;8.94;43.07
34566;BME280;20803;42.676;26.348;2024-01-15T09:45:53;98014.88;;;9.11;42.65
34566;BME280;20803;42.676;26.348;2024-01-15T09:48:19;98013.97;;;9.17;42.23
34566;BME280;20803;42.676;26.348;2024-01-15T09:50:45;97994.75;;;9.07;42.76
34566;BME280;20803;42.676;26.348;2024-01-15T09:53:11;97991.59;;;9.05;42.03
34566;BME280;20803;42.676;26.348;2024-01-15T09:55:40;98000.78;;;9.02;42.42
34566;BME280;20803;42.676;26.348;2024-01-15T09:58:06;97998.59;;;8.89;41.85
34566;BME280;20803;42.676;26.348;2024-01-15T10:00:33;97995.34;;;8.94;42.50
34566;BME280;20803;42.676;26.348;2024-01-15T10:03:03;97991.94;;;8.83;42.05
34566;BME280;20803;42.676;26.348;2024-01-15T10:05:29;97987.38;;;8.96;41.49
34566;BME280;20803;42.676;26.348;2024-01-15T10:07:56;97987.72;;;9.02;41.11
34566;BME280;20803;42.676;26.348;2024-01-15T10:10:23;97991.00;;;8.93;41.04
34566;BME280;20803;42.676;26.348;2024-01-15T10:12:49;97981.16;;;8.62;40.56
34566;BME280;20803;42.676;26.348;2024-01-15T10:15:15;97971.91;;;8.45;41.24
34566;BME280;20803;42.676;26.348;2024-01-15T10:17:41;97975.69;;;8.25;41.13
34566;BME280;20803;42.676;26.348;2024-01-15T10:20:11;97976.25;;;7.79;41.90
34566;BME280;20803;42.676;26.348;2024-01-15T10:22:40;97975.03;;;7.83;42.06
34566;BME280;20803;42.676;26.348;2024-01-15T10:25:10;97972.31;;;7.80;41.94
34566;BME280;20803;42.676;26.348;2024-01-15T10:27:35;97970.06;;;8.01;42.30
34566;BME280;20803;42.676;26.348;2024-01-15T10:30:01;97974.88;;;7.97;42.31
34566;BME280;20803;42.676;26.348;2024-01-15T10:32:28;97967.09;;;7.85;42.34
34566;BME280;20803;42.676;26.348;2024-01-15T10:34:54;97956.84;;;7.45;43.26
34566;BME280;20803;42.676;26.348;2024-01-15T10:37:20;97940.78;;;7.70;43.18
34566;BME280;20803;42.676;26.348;2024-01-15T10:39:48;97945.78;;;7.82;43.13
34566;BME280;20803;42.676;26.348;2024-01-15T10:42:14;97940.97;;;7.56;43.61
34566;BME280;20803;42.676;26.348;2024-01-15T10:44:41;97939.81;;;7.53;43.60
34566;BME280;20803;42.676;26.348;2024-01-15T10:47:08;97932.69;;;7.52;43.64
34566;BME280;20803;42.676;26.348;2024-01-15T10:49:34;97931.75;;;7.66;43.61
34566;BME280;20803;42.676;26.348;2024-01-15T10:52:03;97926.03;;;7.84;43.29
34566;BME280;20803;42.676;26.348;2024-01-15T10:54:29;97928.09;;;8.06;43.05
34566;BME280;20803;42.676;26.348;2024-01-15T10:56:56;97916.78;;;8.28;42.46
34566;BME280;20803;42.676;26.348;2024-01-15T10:59:22;97903.66;;;8.35;41.87
34566;BME280;20803;42.676;26.348;2024-01-15T11:01:49;97894.63;;;8.28;41.90
34566;BME280;20803;42.676;26.348;2024-01-15T11:04:15;97884.06;;;8.19;42.47
34566;BME280;20803;42.676;26.348;2024-01-15T11:06:45;97884.22;;;8.08;42.43
34566;BME280;20803;42.676;26.348;2024-01-15T11:09:15;97901.78;;;7.95;42.60
34566;BME280;20803;42.676;26.348;2024-01-15T11:11:45;97886.44;;;7.90;42.91
34566;BME280;20803;42.676;26.348;2024-01-15T11:17:00;97886.13;;;8.11;42.90
34566;BME280;20803;42.676;26.348;2024-01-15T11:19:47;97896.31;;;7.91;43.28
34566;BME280;20803;42.676;26.348;2024-01-15T11:25:22;97885.84;;;7.42;45.10
34566;BME280;20803;42.676;26.348;2024-01-15T11:27:50;97885.44;;;7.43;45.86
34566;BME280;20803;42.676;26.348;2024-01-15T11:30:17;97891.22;;;7.56;45.77
34566;BME280;20803;42.676;26.348;2024-01-15T11:32:43;97887.22;;;7.57;46.28
34566;BME280;20803;42.676;26.348;2024-01-15T11:35:12;97879.94;;;7.40;46.57
34566;BME280;20803;42.676;26.348;2024-01-15T11:42:58;97859.19;;;7.89;46.05
34566;BME280;20803;42.676;26.348;2024-01-15T11:45:23;97860.97;;;8.02;46.04
34566;BME280;20803;42.676;26.348;2024-01-15T11:48:14;97857.81;;;8.04;46.02
34566;BME280;20803;42.676;26.348;2024-01-15T11:50:44;97855.97;;;8.21;45.63
34566;BME280;20803;42.676;26.348;2024-01-15T11:55:44;97853.41;;;8.06;45.58
34566;BME280;20803;42.676;26.348;2024-01-15T11:58:14;97857.47;;;8.29;45.30
34566;BME280;20803;42.676;26.348;2024-01-15T12:00:43;97862.50;;;8.61;45.82
34566;BME280;20803;42.676;26.348;2024-01-15T12:03:09;97862.69;;;8.96;45.33
34566;BME280;20803;42.676;26.348;2024-01-15T12:05:40;97849.00;;;9.32;44.04
34566;BME280;20803;42.676;26.348;2024-01-15T12:08:07;97855.81;;;9.67;43.08
34566;BME280;20803;42.676;26.348;2024-01-15T12:10:36;97845.69;;;9.97;42.16
34566;BME280;20803;42.676;26.348;2024-01-15T12:13:20;97851.94;;;10.21;41.42
34566;BME280;20803;42.676;26.348;2024-01-15T12:15:47;97844.91;;;10.32;41.28
34566;BME280;20803;42.676;26.348;2024-01-15T12:18:17;97837.72;;;10.51;40.86
34566;BME280;20803;42.676;26.348;2024-01-15T12:20:44;97826.97;;;10.69;39.75
34566;BME280;20803;42.676;26.348;2024-01-15T12:23:12;97825.34;;;11.17;39.35
34566;BME280;20803;42.676;26.348;2024-01-15T12:25:39;97818.50;;;11.63;38.79
34566;BME280;20803;42.676;26.348;2024-01-15T12:28:05;97823.97;;;11.95;38.24
34566;BME280;20803;42.676;26.348;2024-01-15T12:30:33;97829.22;;;12.18;38.11
34566;BME280;20803;42.676;26.348;2024-01-15T12:33:03;97823.50;;;12.60;37.07
34566;BME280;20803;42.676;26.348;2024-01-15T12:35:33;97824.69;;;12.84;36.32
34566;BME280;20803;42.676;26.348;2024-01-15T12:38:02;97815.75;;;12.89;36.39
34566;BME280;20803;42.676;26.348;2024-01-15T12:40:28;97814.69;;;13.21;35.86
34566;BME280;20803;42.676;26.348;2024-01-15T12:42:53;97806.34;;;13.43;35.75
34566;BME280;20803;42.676;26.348;2024-01-15T12:45:19;97806.84;;;13.72;35.15
34566;BME280;20803;42.676;26.348;2024-01-15T12:47:45;97802.75;;;14.17;34.15
34566;BME280;20803;42.676;26.348;2024-01-15T12:50:12;97806.00;;;14.15;34.08
34566;BME280;20803;42.676;26.348;2024-01-15T12:52:40;97810.06;;;14.54;33.66
34566;BME280;20803;42.676;26.348;2024-01-15T12:55:07;97800.41;;;15.14;32.26
34566;BME280;20803;42.676;26.348;2024-01-15T12:57:34;97808.03;;;15.40;31.99
34566;BME280;20803;42.676;26.348;2024-01-15T13:00:00;97810.22;;;15.64;31.73
34566;BME280;20803;42.676;26.348;2024-01-15T13:02:26;97811.94;;;15.70;31.06
34566;BME280;20803;42.676;26.348;2024-01-15T13:04:52;97822.50;;;15.12;31.86
34566;BME280;20803;42.676;26.348;2024-01-15T13:07:19;97801.63;;;14.94;32.41